Chenois Creek, Washington
Current Conditions -  °F | °C
As of 6:53 PM on Friday 19 Dec 2014 (Local Time) from KHQM Reporting Station
Light Rain Light Rain  
Wind Chill: 43°   Ceiling: 4000
Heat Index: 47°   Visibility: 7mi
Dew Point: 44°   Wind: 8mph
Humidity: 90%   Direction: 80°E
Pressure: 29.9"   Gusts: NA
Location:  47.0202°N, 123.878°W
Report Text: KHQM 200253Z AUTO 08007KT 7SM -RA FEW032 BKN040 OVC049 08/07 A2990 RMK AO2 RAB12E23B42 SLP128 P0001 60002 T00830067 58002
Loading
Personal Weather Stations






























Interactive Weather Map New forecast layout! Learn more

10-Day Weather Forecast

Advertisements
Track Severe Weather on mobile